SJV659 WIII-WAHS
Flight info
| Callsign | SJV659 |
|---|---|
| Flight time | 0h 47m |
| Altitude | 29000 |
| Route | CA |
| Aircraft | A320/M-SDE3FGHIRWY/LB1 |
Departure
| Time | 2026-04-17 11:19 |
|---|---|
| Airport | Soekarno-Hatta International Airport (WIII) |
Arrival
| Time | 2026-04-17 12:06 |
|---|---|
| Airport | Jenderal Ahmad Yani Airport (WAHS) |
| Time | Latitude | Longitude | Altitude | Speed | Heading |
|---|---|---|---|---|---|
| 2026-04-17 10:50 | -6.11979 | 106.65285 | 38 ft | 0 kts | 225° |
| 2026-04-17 11:05 | -6.11977 | 106.65288 | 38 ft | 2 kts | 224° |
| 2026-04-17 11:05 | -6.11965 | 106.65300 | 38 ft | 2 kts | 226° |
| 2026-04-17 11:05 | -6.11954 | 106.65312 | 38 ft | 2 kts | 227° |
| 2026-04-17 11:06 | -6.11943 | 106.65324 | 36 ft | 2 kts | 226° |
| 2026-04-17 11:06 | -6.11933 | 106.65338 | 36 ft | 2 kts | 295° |
| 2026-04-17 11:06 | -6.11940 | 106.65349 | 36 ft | 1 kts | 307° |
| 2026-04-17 11:06 | -6.11941 | 106.65351 | 36 ft | 0 kts | 307° |
| 2026-04-17 11:10 | -6.11926 | 106.65328 | 37 ft | 6 kts | 305° |
| 2026-04-17 11:10 | -6.11897 | 106.65290 | 38 ft | 1 kts | 308° |
| 2026-04-17 11:10 | -6.11884 | 106.65273 | 38 ft | 5 kts | 308° |
| 2026-04-17 11:10 | -6.11847 | 106.65245 | 38 ft | 8 kts | 332° |
| 2026-04-17 11:11 | -6.11790 | 106.65215 | 38 ft | 10 kts | 311° |
| 2026-04-17 11:11 | -6.11794 | 106.65141 | 39 ft | 13 kts | 243° |
| 2026-04-17 11:11 | -6.11832 | 106.65048 | 36 ft | 16 kts | 248° |
| 2026-04-17 11:11 | -6.11876 | 106.64932 | 37 ft | 19 kts | 249° |
| 2026-04-17 11:12 | -6.11931 | 106.64796 | 37 ft | 22 kts | 249° |
| 2026-04-17 11:12 | -6.11991 | 106.64645 | 37 ft | 25 kts | 248° |
| 2026-04-17 11:12 | -6.12060 | 106.64472 | 36 ft | 28 kts | 248° |
| 2026-04-17 11:12 | -6.12134 | 106.64289 | 37 ft | 30 kts | 248° |
| 2026-04-17 11:13 | -6.12214 | 106.64088 | 38 ft | 28 kts | 248° |
| 2026-04-17 11:13 | -6.12252 | 106.63993 | 38 ft | 0 kts | 248° |
| 2026-04-17 11:16 | -6.12258 | 106.63974 | 39 ft | 7 kts | 255° |
| 2026-04-17 11:17 | -6.12225 | 106.63902 | 40 ft | 16 kts | 325° |
| 2026-04-17 11:17 | -6.12131 | 106.63903 | 41 ft | 8 kts | 0° |
| 2026-04-17 11:17 | -6.12079 | 106.63939 | 39 ft | 14 kts | 71° |
| 2026-04-17 11:17 | -6.12065 | 106.63972 | 40 ft | 0 kts | 67° |
| 2026-04-17 11:18 | -6.12058 | 106.63990 | 38 ft | 17 kts | 67° |
| 2026-04-17 11:18 | -6.11919 | 106.64338 | 39 ft | 91 kts | 68° |
| 2026-04-17 11:18 | -6.11600 | 106.65138 | 42 ft | 150 kts | 68° |
| 2026-04-17 11:18 | -6.11199 | 106.66172 | 559 ft | 157 kts | 68° |
| 2026-04-17 11:19 | -6.10920 | 106.66840 | 963 ft | 158 kts | 63° |
| 2026-04-17 11:19 | -6.10236 | 106.67726 | 1633 ft | 163 kts | 49° |
| 2026-04-17 11:19 | -6.09149 | 106.68875 | 2409 ft | 184 kts | 47° |
| 2026-04-17 11:19 | -6.08212 | 106.69859 | 2957 ft | 205 kts | 48° |
| 2026-04-17 11:20 | -6.07172 | 106.70973 | 3430 ft | 230 kts | 49° |
| 2026-04-17 11:20 | -6.06034 | 106.72208 | 4058 ft | 251 kts | 49° |
| 2026-04-17 11:20 | -6.04806 | 106.73550 | 4666 ft | 268 kts | 49° |
| 2026-04-17 11:20 | -6.03966 | 106.74469 | 4850 ft | 270 kts | 49° |
| 2026-04-17 11:21 | -6.02691 | 106.75864 | 4982 ft | 271 kts | 49° |
| 2026-04-17 11:21 | -6.01416 | 106.77259 | 5001 ft | 271 kts | 49° |
| 2026-04-17 11:21 | -6.00141 | 106.78655 | 5003 ft | 270 kts | 49° |
| 2026-04-17 11:21 | -5.98877 | 106.80051 | 5002 ft | 269 kts | 52° |
| 2026-04-17 11:22 | -5.97953 | 106.82324 | 5158 ft | 270 kts | 88° |
| 2026-04-17 11:22 | -5.98082 | 106.83592 | 5576 ft | 272 kts | 106° |
| 2026-04-17 11:22 | -5.98689 | 106.85358 | 6614 ft | 270 kts | 109° |
| 2026-04-17 11:22 | -5.99304 | 106.87155 | 7501 ft | 275 kts | 109° |
| 2026-04-17 11:23 | -5.99925 | 106.88992 | 8398 ft | 279 kts | 109° |
| 2026-04-17 11:23 | -6.00555 | 106.90850 | 9294 ft | 284 kts | 109° |
| 2026-04-17 11:23 | -6.01200 | 106.92744 | 10123 ft | 288 kts | 109° |
| 2026-04-17 11:23 | -6.01870 | 106.94706 | 10616 ft | 308 kts | 109° |
| 2026-04-17 11:24 | -6.02592 | 106.96817 | 10869 ft | 331 kts | 109° |
| 2026-04-17 11:24 | -6.03358 | 106.99053 | 11393 ft | 343 kts | 109° |
| 2026-04-17 11:24 | -6.03933 | 107.00732 | 11970 ft | 345 kts | 109° |
| 2026-04-17 11:27 | -6.03960 | 107.00811 | 12004 ft | 345 kts | 109° |
| 2026-04-17 11:28 | -6.04742 | 107.03095 | 12554 ft | 348 kts | 109° |
| 2026-04-17 11:28 | -6.05536 | 107.05415 | 12773 ft | 352 kts | 109° |
| 2026-04-17 11:28 | -6.06334 | 107.07747 | 12844 ft | 351 kts | 109° |
| 2026-04-17 11:28 | -6.07120 | 107.10043 | 12968 ft | 354 kts | 109° |
| 2026-04-17 11:29 | -6.07924 | 107.12395 | 13656 ft | 356 kts | 109° |
| 2026-04-17 11:29 | -6.08730 | 107.14751 | 14406 ft | 358 kts | 109° |
| 2026-04-17 11:29 | -6.09544 | 107.17133 | 15070 ft | 362 kts | 109° |
| 2026-04-17 11:29 | -6.10490 | 107.19492 | 15727 ft | 366 kts | 114° |
| 2026-04-17 11:30 | -6.11522 | 107.21839 | 16377 ft | 370 kts | 114° |
| 2026-04-17 11:30 | -6.12562 | 107.24215 | 17021 ft | 373 kts | 114° |
| 2026-04-17 11:30 | -6.13608 | 107.26614 | 17644 ft | 377 kts | 114° |
| 2026-04-17 11:30 | -6.14667 | 107.29041 | 18241 ft | 380 kts | 114° |
| 2026-04-17 11:31 | -6.15733 | 107.31486 | 18775 ft | 384 kts | 114° |
| 2026-04-17 11:31 | -6.16807 | 107.33951 | 19317 ft | 386 kts | 114° |
| 2026-04-17 11:31 | -6.17891 | 107.36438 | 19846 ft | 389 kts | 114° |
| 2026-04-17 11:31 | -6.18983 | 107.38944 | 20380 ft | 393 kts | 114° |
| 2026-04-17 11:32 | -6.20085 | 107.41472 | 20900 ft | 396 kts | 114° |
| 2026-04-17 11:32 | -6.21195 | 107.44018 | 21423 ft | 399 kts | 114° |
| 2026-04-17 11:32 | -6.22312 | 107.46583 | 21938 ft | 402 kts | 114° |
| 2026-04-17 11:32 | -6.23439 | 107.49169 | 22441 ft | 405 kts | 114° |
| 2026-04-17 11:33 | -6.24558 | 107.51740 | 22942 ft | 408 kts | 114° |
| 2026-04-17 11:33 | -6.25701 | 107.54363 | 23434 ft | 411 kts | 114° |
| 2026-04-17 11:33 | -6.26851 | 107.57005 | 23854 ft | 414 kts | 114° |
| 2026-04-17 11:33 | -6.28009 | 107.59664 | 24283 ft | 416 kts | 114° |
| 2026-04-17 11:34 | -6.29176 | 107.62343 | 24702 ft | 418 kts | 114° |
| 2026-04-17 11:34 | -6.30348 | 107.65036 | 25112 ft | 421 kts | 114° |
| 2026-04-17 11:34 | -6.31525 | 107.67740 | 25535 ft | 423 kts | 114° |
| 2026-04-17 11:34 | -6.32707 | 107.70456 | 25922 ft | 425 kts | 114° |
| 2026-04-17 11:35 | -6.33897 | 107.73193 | 26308 ft | 428 kts | 114° |
| 2026-04-17 11:35 | -6.35090 | 107.75935 | 26671 ft | 430 kts | 114° |
| 2026-04-17 11:35 | -6.36276 | 107.78662 | 26832 ft | 431 kts | 114° |
| 2026-04-17 11:35 | -6.37477 | 107.81423 | 26866 ft | 431 kts | 114° |
| 2026-04-17 11:36 | -6.38679 | 107.84188 | 26870 ft | 431 kts | 114° |
| 2026-04-17 11:36 | -6.39877 | 107.86945 | 26872 ft | 431 kts | 114° |
| 2026-04-17 11:36 | -6.41077 | 107.89705 | 26873 ft | 431 kts | 114° |
| 2026-04-17 11:36 | -6.42279 | 107.92470 | 26876 ft | 431 kts | 114° |
| 2026-04-17 11:37 | -6.43479 | 107.95232 | 26878 ft | 430 kts | 114° |
| 2026-04-17 11:37 | -6.44676 | 107.97987 | 26878 ft | 430 kts | 114° |
| 2026-04-17 11:37 | -6.45875 | 108.00747 | 26878 ft | 430 kts | 114° |
| 2026-04-17 11:37 | -6.47074 | 108.03510 | 26878 ft | 430 kts | 114° |
| 2026-04-17 11:38 | -6.48271 | 108.06270 | 26878 ft | 430 kts | 114° |
| 2026-04-17 11:38 | -6.49469 | 108.09030 | 26880 ft | 430 kts | 114° |
| 2026-04-17 11:38 | -6.50665 | 108.11788 | 26881 ft | 430 kts | 114° |
| 2026-04-17 11:38 | -6.51860 | 108.14545 | 26880 ft | 430 kts | 114° |
| 2026-04-17 11:39 | -6.53057 | 108.17305 | 26881 ft | 430 kts | 114° |
| 2026-04-17 11:39 | -6.54253 | 108.20064 | 26881 ft | 430 kts | 114° |
| 2026-04-17 11:39 | -6.55436 | 108.22793 | 26882 ft | 430 kts | 114° |
| 2026-04-17 11:39 | -6.56633 | 108.25555 | 26883 ft | 430 kts | 114° |
| 2026-04-17 11:40 | -6.57829 | 108.28316 | 26882 ft | 430 kts | 114° |
| 2026-04-17 11:40 | -6.59027 | 108.31081 | 26883 ft | 430 kts | 114° |
| 2026-04-17 11:40 | -6.60226 | 108.33852 | 26883 ft | 430 kts | 114° |
| 2026-04-17 11:40 | -6.61422 | 108.36613 | 26886 ft | 430 kts | 114° |
| 2026-04-17 11:41 | -6.62606 | 108.39347 | 26883 ft | 430 kts | 114° |
| 2026-04-17 11:41 | -6.63815 | 108.42141 | 26887 ft | 430 kts | 114° |
| 2026-04-17 11:41 | -6.64996 | 108.44868 | 26887 ft | 430 kts | 114° |
| 2026-04-17 11:41 | -6.66190 | 108.47627 | 26887 ft | 430 kts | 114° |
| 2026-04-17 11:42 | -6.67385 | 108.50389 | 26886 ft | 430 kts | 114° |
| 2026-04-17 11:42 | -6.68577 | 108.53149 | 26888 ft | 430 kts | 113° |
| 2026-04-17 11:42 | -6.69590 | 108.55977 | 26887 ft | 430 kts | 107° |
| 2026-04-17 11:42 | -6.70280 | 108.58909 | 26889 ft | 431 kts | 101° |
| 2026-04-17 11:43 | -6.70749 | 108.61892 | 26888 ft | 431 kts | 99° |
| 2026-04-17 11:43 | -6.71222 | 108.64873 | 26766 ft | 431 kts | 100° |
| 2026-04-17 11:43 | -6.71700 | 108.67848 | 26530 ft | 429 kts | 100° |
| 2026-04-17 11:43 | -6.72177 | 108.70811 | 26294 ft | 427 kts | 100° |
| 2026-04-17 11:44 | -6.72651 | 108.73757 | 26060 ft | 426 kts | 100° |
| 2026-04-17 11:44 | -6.73118 | 108.76663 | 25829 ft | 425 kts | 100° |
| 2026-04-17 11:44 | -6.73588 | 108.79594 | 25596 ft | 423 kts | 100° |
| 2026-04-17 11:44 | -6.74056 | 108.82512 | 25366 ft | 422 kts | 100° |
| 2026-04-17 11:45 | -6.74522 | 108.85423 | 25141 ft | 421 kts | 100° |
| 2026-04-17 11:45 | -6.74986 | 108.88324 | 24916 ft | 419 kts | 100° |
| 2026-04-17 11:45 | -6.75449 | 108.91215 | 24690 ft | 418 kts | 100° |
| 2026-04-17 11:45 | -6.75910 | 108.94104 | 24470 ft | 417 kts | 100° |
| 2026-04-17 11:46 | -6.76371 | 108.96985 | 24253 ft | 416 kts | 100° |
| 2026-04-17 11:46 | -6.76828 | 108.99848 | 24036 ft | 414 kts | 100° |
| 2026-04-17 11:46 | -6.77285 | 109.02708 | 23818 ft | 413 kts | 100° |
| 2026-04-17 11:46 | -6.77733 | 109.05514 | 23602 ft | 412 kts | 100° |
| 2026-04-17 11:47 | -6.78188 | 109.08360 | 23376 ft | 410 kts | 100° |
| 2026-04-17 11:47 | -6.78641 | 109.11204 | 23113 ft | 408 kts | 100° |
| 2026-04-17 11:47 | -6.79090 | 109.14015 | 22853 ft | 406 kts | 100° |
| 2026-04-17 11:47 | -6.79511 | 109.16825 | 22600 ft | 405 kts | 99° |
| 2026-04-17 11:48 | -6.79900 | 109.19621 | 22349 ft | 403 kts | 98° |
| 2026-04-17 11:48 | -6.80284 | 109.22416 | 21967 ft | 403 kts | 98° |
| 2026-04-17 11:48 | -6.80667 | 109.25180 | 21377 ft | 403 kts | 98° |
| 2026-04-17 11:48 | -6.81056 | 109.27966 | 20774 ft | 401 kts | 98° |
| 2026-04-17 11:49 | -6.81444 | 109.30732 | 20165 ft | 397 kts | 98° |
| 2026-04-17 11:49 | -6.81830 | 109.33477 | 19568 ft | 394 kts | 98° |
| 2026-04-17 11:49 | -6.82215 | 109.36209 | 18970 ft | 392 kts | 98° |
| 2026-04-17 11:49 | -6.82596 | 109.38914 | 18372 ft | 389 kts | 98° |
| 2026-04-17 11:50 | -6.82974 | 109.41599 | 17745 ft | 386 kts | 98° |
| 2026-04-17 11:50 | -6.83346 | 109.44245 | 17157 ft | 375 kts | 98° |
| 2026-04-17 11:50 | -6.83705 | 109.46799 | 16670 ft | 361 kts | 98° |
| 2026-04-17 11:50 | -6.84045 | 109.49223 | 16466 ft | 340 kts | 98° |
| 2026-04-17 11:51 | -6.84367 | 109.51517 | 16197 ft | 324 kts | 98° |
| 2026-04-17 11:51 | -6.84680 | 109.53742 | 15609 ft | 320 kts | 99° |
| 2026-04-17 11:51 | -6.84990 | 109.55952 | 14977 ft | 318 kts | 99° |
| 2026-04-17 11:51 | -6.85300 | 109.58151 | 14386 ft | 317 kts | 99° |
| 2026-04-17 11:52 | -6.85609 | 109.60351 | 13978 ft | 316 kts | 99° |
| 2026-04-17 11:52 | -6.85915 | 109.62536 | 13577 ft | 314 kts | 99° |
| 2026-04-17 11:52 | -6.86221 | 109.64710 | 13150 ft | 312 kts | 99° |
| 2026-04-17 11:52 | -6.86523 | 109.66864 | 12736 ft | 310 kts | 99° |
| 2026-04-17 11:53 | -6.86819 | 109.68978 | 12332 ft | 308 kts | 99° |
| 2026-04-17 11:53 | -6.87121 | 109.71134 | 11917 ft | 306 kts | 99° |
| 2026-04-17 11:53 | -6.87413 | 109.73217 | 11519 ft | 304 kts | 99° |
| 2026-04-17 11:53 | -6.87708 | 109.75320 | 11122 ft | 302 kts | 99° |
| 2026-04-17 11:54 | -6.87999 | 109.77403 | 10726 ft | 300 kts | 99° |
| 2026-04-17 11:54 | -6.88289 | 109.79472 | 10449 ft | 294 kts | 99° |
| 2026-04-17 11:54 | -6.88564 | 109.81447 | 10302 ft | 276 kts | 99° |
| 2026-04-17 11:54 | -6.88826 | 109.83318 | 9987 ft | 266 kts | 99° |
| 2026-04-17 11:55 | -6.89084 | 109.85163 | 9599 ft | 266 kts | 99° |
| 2026-04-17 11:55 | -6.89339 | 109.87000 | 9227 ft | 264 kts | 97° |
| 2026-04-17 11:55 | -6.89384 | 109.88827 | 9028 ft | 257 kts | 86° |
| 2026-04-17 11:55 | -6.89117 | 109.90562 | 8932 ft | 246 kts | 80° |
| 2026-04-17 11:56 | -6.88796 | 109.92221 | 8731 ft | 239 kts | 81° |
| 2026-04-17 11:56 | -6.88492 | 109.93869 | 8409 ft | 239 kts | 81° |
| 2026-04-17 11:56 | -6.88193 | 109.95509 | 8116 ft | 237 kts | 81° |
| 2026-04-17 11:56 | -6.87895 | 109.97140 | 7807 ft | 237 kts | 81° |
| 2026-04-17 11:57 | -6.87597 | 109.98762 | 7477 ft | 234 kts | 81° |
| 2026-04-17 11:57 | -6.87300 | 110.00371 | 7055 ft | 233 kts | 81° |
| 2026-04-17 11:57 | -6.87004 | 110.01970 | 6654 ft | 232 kts | 81° |
| 2026-04-17 11:57 | -6.86713 | 110.03540 | 6267 ft | 229 kts | 81° |
| 2026-04-17 11:58 | -6.86424 | 110.05102 | 5866 ft | 225 kts | 81° |
| 2026-04-17 11:58 | -6.86135 | 110.06661 | 5421 ft | 220 kts | 81° |
| 2026-04-17 11:58 | -6.85863 | 110.08120 | 5238 ft | 206 kts | 81° |
| 2026-04-17 11:58 | -6.85604 | 110.09520 | 4882 ft | 203 kts | 81° |
| 2026-04-17 11:59 | -6.85351 | 110.10891 | 4481 ft | 202 kts | 81° |
| 2026-04-17 11:59 | -6.85094 | 110.12282 | 4069 ft | 202 kts | 80° |
| 2026-04-17 11:59 | -6.84839 | 110.13662 | 3705 ft | 200 kts | 80° |
| 2026-04-17 11:59 | -6.84586 | 110.15031 | 3345 ft | 199 kts | 80° |
| 2026-04-17 12:00 | -6.84335 | 110.16386 | 3091 ft | 192 kts | 80° |
| 2026-04-17 12:00 | -6.84099 | 110.17657 | 2997 ft | 177 kts | 80° |
| 2026-04-17 12:00 | -6.83878 | 110.18840 | 3003 ft | 175 kts | 80° |
| 2026-04-17 12:00 | -6.83652 | 110.20063 | 2999 ft | 178 kts | 80° |
| 2026-04-17 12:01 | -6.83582 | 110.21288 | 2997 ft | 177 kts | 103° |
| 2026-04-17 12:01 | -6.84169 | 110.22367 | 2940 ft | 178 kts | 133° |
| 2026-04-17 12:01 | -6.85034 | 110.23241 | 2753 ft | 175 kts | 134° |
| 2026-04-17 12:01 | -6.85882 | 110.24131 | 2439 ft | 177 kts | 132° |
| 2026-04-17 12:02 | -6.86722 | 110.25006 | 2320 ft | 175 kts | 137° |
| 2026-04-17 12:02 | -6.87622 | 110.25842 | 2273 ft | 177 kts | 134° |
| 2026-04-17 12:02 | -6.88429 | 110.26708 | 2187 ft | 162 kts | 130° |
| 2026-04-17 12:02 | -6.89125 | 110.27531 | 2041 ft | 150 kts | 129° |
| 2026-04-17 12:03 | -6.89769 | 110.28317 | 1877 ft | 139 kts | 128° |
| 2026-04-17 12:03 | -6.90374 | 110.29060 | 1709 ft | 139 kts | 128° |
| 2026-04-17 12:03 | -6.90986 | 110.29812 | 1532 ft | 138 kts | 128° |
| 2026-04-17 12:03 | -6.91594 | 110.30560 | 1358 ft | 138 kts | 128° |
| 2026-04-17 12:04 | -6.92207 | 110.31312 | 1197 ft | 138 kts | 128° |
| 2026-04-17 12:04 | -6.92816 | 110.32061 | 1039 ft | 139 kts | 128° |
| 2026-04-17 12:04 | -6.93425 | 110.32812 | 880 ft | 138 kts | 127° |
| 2026-04-17 12:04 | -6.94035 | 110.33562 | 715 ft | 138 kts | 127° |
| 2026-04-17 12:05 | -6.94639 | 110.34307 | 531 ft | 137 kts | 127° |
| 2026-04-17 12:05 | -6.95231 | 110.35063 | 335 ft | 138 kts | 126° |
| 2026-04-17 12:05 | -6.95807 | 110.35820 | 197 ft | 137 kts | 126° |
| 2026-04-17 12:05 | -6.96417 | 110.36554 | 13 ft | 135 kts | 129° |
| 2026-04-17 12:06 | -6.96914 | 110.37145 | 5 ft | 71 kts | 130° |
| 2026-04-17 12:06 | -6.97160 | 110.37437 | 3 ft | 67 kts | 131° |
| 2026-04-17 12:06 | -6.97327 | 110.37630 | 5 ft | 26 kts | 130° |
| 2026-04-17 12:06 | -6.97353 | 110.37660 | 5 ft | 6 kts | 130° |
| 2026-04-17 12:07 | -6.97390 | 110.37693 | 5 ft | 1 kts | 138° |
| 2026-04-17 12:07 | -6.97386 | 110.37700 | 6 ft | 1 kts | 54° |
| 2026-04-17 12:07 | -6.97378 | 110.37696 | 6 ft | 3 kts | 343° |
| 2026-04-17 12:07 | -6.97338 | 110.37653 | 5 ft | 14 kts | 309° |
| 2026-04-17 12:08 | -6.97255 | 110.37552 | 5 ft | 23 kts | 310° |
| 2026-04-17 12:08 | -6.97159 | 110.37439 | 3 ft | 17 kts | 311° |
| 2026-04-17 12:08 | -6.97095 | 110.37424 | 4 ft | 9 kts | 25° |
| 2026-04-17 12:08 | -6.97068 | 110.37447 | 9 ft | 2 kts | 37° |
| 2026-04-17 12:09 | -6.97056 | 110.37457 | 11 ft | 3 kts | 37° |
| 2026-04-17 12:09 | -6.97027 | 110.37478 | 21 ft | 8 kts | 37° |
| 2026-04-17 12:09 | -6.96965 | 110.37529 | 17 ft | 15 kts | 40° |
| 2026-04-17 12:09 | -6.96897 | 110.37557 | 18 ft | 8 kts | 328° |
| 2026-04-17 12:10 | -6.96856 | 110.37501 | 18 ft | 15 kts | 313° |
| 2026-04-17 12:10 | -6.96805 | 110.37442 | 18 ft | 9 kts | 310° |
| 2026-04-17 12:10 | -6.96753 | 110.37425 | 20 ft | 9 kts | 32° |
| 2026-04-17 12:10 | -6.96718 | 110.37452 | 19 ft | 0 kts | 39° |
| 2026-04-17 12:11 | -6.96716 | 110.37453 | 19 ft | 2 kts | 39° |
| 2026-04-17 12:11 | -6.96710 | 110.37458 | 19 ft | 0 kts | 39° |